Time;durP1;ratioP1;P1;durP2;ratioP2;P2;SDS_P1;SDS_P2;PMS_P1;PMS_P2;Temp;Humidity;BMP_temperature;BMP_pressure;BME280_temperature;BME280_humidity;BME280_pressure;Samples;Min_cycle;Max_cycle;Signal;HPM_P1;HPM_P2
2021/05/19 00:01:44;;;;;;;5.97;4.40;;;;;;;10.65;81.19;99193.59;5095663;28;20036;-46
2021/05/19 00:04:10;;;;;;;7.28;5.03;;;;;;;10.66;81.86;99210.16;5095049;28;20056;-46
2021/05/19 00:06:36;;;;;;;6.53;5.38;;;;;;;10.66;81.89;99203.19;5096162;28;20063;-46
2021/05/19 00:09:07;;;;;;;5.75;4.93;;;;;;;10.68;81.64;99210.97;5095610;28;20036;-46
2021/05/19 00:11:33;;;;;;;7.65;5.40;;;;;;;10.65;82.46;99201.47;5095839;28;20059;-46
2021/05/19 00:13:58;;;;;;;7.85;5.50;;;;;;;10.64;82.30;99205.00;5095528;28;20343;-46
2021/05/19 00:16:24;;;;;;;7.10;4.90;;;;;;;10.63;82.35;99197.22;5095750;28;20058;-46
2021/05/19 00:18:50;;;;;;;10.20;5.63;;;;;;;10.61;83.18;99201.63;5097256;28;20072;-46
2021/05/19 00:21:16;;;;;;;6.35;5.15;;;;;;;10.58;83.18;99205.19;5098974;28;20057;-46
2021/05/19 00:23:42;;;;;;;7.45;4.55;;;;;;;10.56;83.26;99201.78;5099359;28;20044;-46
2021/05/19 00:26:08;;;;;;;5.45;4.57;;;;;;;10.57;82.80;99203.50;5099281;28;20124;-46
2021/05/19 00:28:33;;;;;;;6.47;4.95;;;;;;;10.57;83.04;99202.66;5099781;28;20048;-46
2021/05/19 00:31:03;;;;;;;7.38;5.35;;;;;;;10.52;83.17;99198.41;5098578;28;20063;-46
2021/05/19 00:33:29;;;;;;;7.13;4.53;;;;;;;10.49;83.08;99200.28;5099134;28;20044;-46
2021/05/19 00:35:55;;;;;;;7.53;5.65;;;;;;;10.50;82.95;99208.09;5098920;28;20353;-46
2021/05/19 00:38:21;;;;;;;7.38;5.07;;;;;;;10.50;82.84;99202.00;5097917;28;20044;-46
2021/05/19 00:40:47;;;;;;;6.82;6.07;;;;;;;10.51;83.20;99203.72;5098816;28;20044;-46
2021/05/19 00:43:13;;;;;;;7.45;6.05;;;;;;;10.49;83.47;99201.13;5098908;28;20052;-46
2021/05/19 00:45:39;;;;;;;6.28;5.63;;;;;;;10.53;83.42;99192.28;5099469;28;20043;-46
2021/05/19 00:48:06;;;;;;;8.65;5.60;;;;;;;10.54;83.90;99185.28;5098030;28;20113;-46
2021/05/19 00:50:32;;;;;;;6.95;5.78;;;;;;;10.56;83.88;99186.06;5098610;28;20051;-46
2021/05/19 00:52:58;;;;;;;9.82;6.97;;;;;;;10.66;84.05;99197.94;5098564;28;20441;-46
2021/05/19 00:55:24;;;;;;;7.75;6.38;;;;;;;10.61;84.38;99181.53;5097671;28;20350;-46
2021/05/19 00:57:51;;;;;;;7.03;6.30;;;;;;;10.61;84.80;99191.16;5097633;28;20515;-46
2021/05/19 01:00:19;;;;;;;10.65;6.75;;;;;;;10.68;84.52;99190.03;5097786;28;20076;-46
2021/05/19 01:02:59;;;;;;;6.50;5.63;;;;;;;10.68;84.53;99190.88;5098657;28;20071;-46
2021/05/19 01:05:49;;;;;;;8.07;6.30;;;;;;;10.71;84.82;99201.25;5099304;28;20062;-46
2021/05/19 01:11:08;;;;;;;9.27;7.55;;;;;;;10.76;84.08;99198.47;5098138;28;20327;-46
2021/05/19 01:13:34;;;;;;;8.88;7.35;;;;;;;10.77;84.63;99195.78;5098102;28;20468;-46
2021/05/19 01:16:00;;;;;;;9.73;7.22;;;;;;;10.75;84.69;99196.75;5097489;28;20051;-46
2021/05/19 01:18:27;;;;;;;9.52;7.32;;;;;;;10.80;84.24;99194.84;5098315;28;20059;-46
2021/05/19 01:20:54;;;;;;;9.50;8.50;;;;;;;10.84;84.02;99185.94;5113998;28;20386;-46
2021/05/19 01:23:21;;;;;;;10.07;8.82;;;;;;;10.76;84.49;99177.53;5098186;28;20059;-46
2021/05/19 01:25:47;;;;;;;9.45;7.72;;;;;;;10.88;84.20;99186.69;5097050;28;20040;-46
2021/05/19 01:28:12;;;;;;;10.80;7.95;;;;;;;10.88;84.33;99194.56;5097234;28;20048;-46
2021/05/19 01:30:38;;;;;;;8.80;7.13;;;;;;;10.91;84.24;99197.06;5097979;28;20422;-46
2021/05/19 01:33:04;;;;;;;8.27;7.38;;;;;;;10.95;84.40;99198.66;5080375;28;20059;-46
2021/05/19 01:35:30;;;;;;;10.57;8.05;;;;;;;10.97;84.06;99192.44;5097098;28;20048;-46
2021/05/19 01:37:56;;;;;;;8.38;7.47;;;;;;;10.98;84.49;99198.53;5097675;28;20322;-46
2021/05/19 01:40:22;;;;;;;7.68;6.88;;;;;;;11.02;84.51;99209.75;5097888;28;20048;-46
2021/05/19 01:42:49;;;;;;;10.73;8.05;;;;;;;11.03;84.19;99212.34;5080226;28;20044;-46
2021/05/19 01:45:29;;;;;;;10.73;7.13;;;;;;;11.03;84.27;99209.72;5096862;28;20055;-46
2021/05/19 01:47:55;;;;;;;7.93;6.97;;;;;;;11.08;84.42;99204.31;5097399;28;20078;-46
2021/05/19 01:50:25;;;;;;;9.25;8.10;;;;;;;11.09;84.01;99206.88;5097133;28;20119;-46
2021/05/19 01:52:56;;;;;;;8.68;7.82;;;;;;;11.10;84.09;99205.97;5097688;28;20117;-46
2021/05/19 01:55:23;;;;;;;9.63;8.63;;;;;;;11.11;84.08;99207.66;5097010;28;20066;-46
2021/05/19 01:57:49;;;;;;;11.25;9.02;;;;;;;11.06;84.72;99200.91;5096414;28;20039;-46
2021/05/19 02:00:17;;;;;;;10.95;8.32;;;;;;;11.18;84.03;99211.78;5079736;28;20438;-46
2021/05/19 02:02:54;;;;;;;10.13;8.43;;;;;;;11.22;84.40;99218.63;5096686;28;20135;-46
2021/05/19 02:05:20;;;;;;;10.88;9.25;;;;;;;11.20;84.37;99217.81;5097342;28;20116;-46
2021/05/19 02:07:46;;;;;;;14.70;9.85;;;;;;;11.25;84.24;99211.56;5079489;28;20111;-46
2021/05/19 02:10:12;;;;;;;17.20;10.00;;;;;;;11.31;84.37;99219.19;5079321;28;20438;-46
2021/05/19 02:12:40;;;;;;;12.00;9.65;;;;;;;11.31;84.35;99220.06;5097264;28;20113;-46
2021/05/19 02:15:06;;;;;;;10.50;9.10;;;;;;;11.30;84.45;99220.09;5096909;28;20400;-46
2021/05/19 02:17:32;;;;;;;10.13;8.77;;;;;;;11.26;84.50;99215.91;5079521;28;20084;-46
2021/05/19 02:20:09;;;;;;;13.98;10.20;;;;;;;11.41;83.94;99224.03;5097109;28;20059;-46
2021/05/19 02:22:34;;;;;;;12.10;8.98;;;;;;;11.42;83.77;99219.66;5096933;28;20067;-46
2021/05/19 02:25:01;;;;;;;10.30;9.05;;;;;;;11.46;83.47;99216.84;5096691;28;20040;-46
2021/05/19 02:27:26;;;;;;;10.02;7.80;;;;;;;11.45;83.23;99225.63;5096118;28;20052;-46
2021/05/19 02:29:55;;;;;;;10.95;9.40;;;;;;;11.49;83.17;99221.13;5095862;28;20397;-46
2021/05/19 02:32:22;;;;;;;11.77;8.95;;;;;;;11.48;83.68;99221.19;5096693;28;20046;-46
2021/05/19 02:34:48;;;;;;;9.20;8.25;;;;;;;11.49;83.12;99215.88;5095991;28;20072;-46
2021/05/19 02:37:14;;;;;;;10.90;9.40;;;;;;;11.52;83.15;99226.25;5095746;28;20036;-46
2021/05/19 02:39:40;;;;;;;14.07;9.05;;;;;;;11.52;83.13;99221.00;5096854;28;20055;-46
2021/05/19 02:42:07;;;;;;;11.00;9.90;;;;;;;11.54;82.76;99229.69;5096345;28;20055;-46
2021/05/19 02:44:32;;;;;;;10.60;9.50;;;;;;;11.56;82.88;99227.84;5113354;28;20531;-46
2021/05/19 02:46:58;;;;;;;12.98;10.68;;;;;;;11.59;82.69;99238.22;5096727;28;20056;-46
2021/05/19 02:49:24;;;;;;;17.70;11.80;;;;;;;11.60;82.79;99225.94;5095798;28;20113;-46
2021/05/19 02:51:50;;;;;;;17.45;12.43;;;;;;;11.59;83.03;99232.97;5062316;28;20433;-46
2021/05/19 02:54:15;;;;;;;15.23;10.38;;;;;;;11.57;83.21;99231.31;5112617;28;20052;-46
2021/05/19 02:56:41;;;;;;;14.50;11.45;;;;;;;11.57;82.98;99228.69;5096319;28;20066;-46
2021/05/19 02:59:07;;;;;;;12.43;9.82;;;;;;;11.52;83.44;99239.38;5096274;28;20044;-46
2021/05/19 03:01:33;;;;;;;14.00;10.82;;;;;;;11.59;83.03;99234.75;5096266;28;20040;-46
2021/05/19 03:03:59;;;;;;;14.07;10.52;;;;;;;11.56;82.84;99233.09;5095250;28;20056;-46
2021/05/19 03:06:24;;;;;;;12.38;9.85;;;;;;;11.58;83.07;99243.53;5078756;28;20059;-46
2021/05/19 03:08:51;;;;;;;12.88;11.45;;;;;;;11.60;83.17;99239.06;5096405;28;20055;-46
2021/05/19 03:11:17;;;;;;;13.35;10.23;;;;;;;11.61;83.11;99228.53;5096163;28;20094;-46
2021/05/19 03:13:42;;;;;;;13.73;11.10;;;;;;;11.62;82.96;99238.09;5095507;28;20044;-46
2021/05/19 03:16:08;;;;;;;14.75;10.70;;;;;;;11.64;82.91;99238.06;5096307;28;20070;-46
2021/05/19 03:18:34;;;;;;;11.23;9.20;;;;;;;11.63;82.62;99238.94;5095163;28;20067;-46
2021/05/19 03:21:01;;;;;;;11.73;8.88;;;;;;;11.64;82.85;99245.91;5096098;28;20139;-46
2021/05/19 03:23:28;;;;;;;13.40;9.75;;;;;;;11.65;82.82;99247.63;5095960;28;20353;-46
2021/05/19 03:25:53;;;;;;;10.75;9.50;;;;;;;11.66;82.96;99254.56;5096002;28;20046;-46
2021/05/19 03:28:19;;;;;;;12.63;9.98;;;;;;;11.70;82.71;99251.78;5096253;28;20036;-46
2021/05/19 03:30:45;;;;;;;13.52;10.68;;;;;;;11.69;82.64;99249.22;5096172;28;20067;-46
2021/05/19 03:33:11;;;;;;;12.07;10.73;;;;;;;11.69;82.65;99254.44;5095644;28;20048;-46
2021/05/19 03:35:36;;;;;;;11.52;10.32;;;;;;;11.75;82.83;99258.63;5095848;28;20101;-46
2021/05/19 03:38:02;;;;;;;11.30;9.77;;;;;;;11.75;82.55;99256.84;5096163;28;20052;-46
2021/05/19 03:40:28;;;;;;;12.55;10.38;;;;;;;11.73;82.69;99263.91;5095816;28;20464;-46
2021/05/19 03:42:54;;;;;;;9.77;8.30;;;;;;;11.74;83.17;99257.78;5096253;28;20040;-46
2021/05/19 03:45:20;;;;;;;11.27;9.20;;;;;;;11.80;83.02;99264.56;5094900;28;20488;-46
2021/05/19 03:47:49;;;;;;;11.82;10.00;;;;;;;11.83;82.65;99264.41;5095732;28;20051;-46
2021/05/19 03:50:15;;;;;;;10.38;9.15;;;;;;;11.83;83.16;99269.66;5094918;28;20036;-46
2021/05/19 03:52:40;;;;;;;12.13;9.73;;;;;;;11.85;82.37;99273.13;5096011;28;20044;-46
2021/05/19 03:55:07;;;;;;;13.18;10.15;;;;;;;11.86;82.67;99267.84;5099641;28;20067;-46
2021/05/19 03:57:33;;;;;;;10.77;9.68;;;;;;;11.90;82.77;99266.78;5099883;28;20117;-46
2021/05/19 03:59:59;;;;;;;12.55;10.35;;;;;;;11.90;82.64;99264.16;5100116;28;20036;-46
2021/05/19 04:02:25;;;;;;;11.30;9.50;;;;;;;11.94;82.26;99280.66;5081751;28;20052;-46
2021/05/19 04:04:51;;;;;;;11.98;9.77;;;;;;;11.94;82.63;99275.41;5099642;28;20052;-46
2021/05/19 04:07:17;;;;;;;11.73;8.57;;;;;;;11.98;82.12;99276.97;5099679;28;20047;-46
2021/05/19 04:09:43;;;;;;;11.05;7.85;;;;;;;12.02;82.52;99278.56;5098789;28;20323;-46
2021/05/19 04:12:08;;;;;;;11.38;9.25;;;;;;;12.05;82.03;99277.59;5099354;28;20100;-46
2021/05/19 04:14:34;;;;;;;11.57;9.60;;;;;;;12.10;82.11;99278.28;5098783;28;20062;-46
2021/05/19 04:17:00;;;;;;;12.35;10.30;;;;;;;12.14;81.55;99282.47;5099509;28;20048;-46
2021/05/19 04:19:25;;;;;;;12.40;9.77;;;;;;;12.12;81.83;99285.19;5099172;28;20138;-46
2021/05/19 04:21:51;;;;;;;13.27;10.40;;;;;;;12.20;81.20;99281.38;5099658;28;20131;-46
2021/05/19 04:24:17;;;;;;;12.10;9.82;;;;;;;12.20;81.15;99290.13;5115411;28;20128;-46
2021/05/19 04:26:43;;;;;;;11.63;9.40;;;;;;;12.28;80.80;99292.41;5099015;28;20062;-46
2021/05/19 04:29:08;;;;;;;10.32;9.23;;;;;;;12.25;80.95;99298.69;5099061;28;20044;-46
2021/05/19 04:31:34;;;;;;;11.50;9.80;;;;;;;12.24;80.87;99283.81;5099278;28;20044;-46
2021/05/19 04:34:00;;;;;;;11.43;9.38;;;;;;;12.21;81.18;99298.84;5098978;28;20040;-46
2021/05/19 04:36:26;;;;;;;12.65;10.00;;;;;;;12.24;80.95;99298.72;5098333;28;20040;-46
2021/05/19 04:38:51;;;;;;;10.68;9.43;;;;;;;12.30;80.54;99301.09;5098802;28;20058;-46
2021/05/19 04:41:17;;;;;;;11.85;8.45;;;;;;;12.29;80.68;99292.38;5098111;28;20040;-46
2021/05/19 04:43:43;;;;;;;13.27;9.07;;;;;;;12.36;80.43;99292.97;5097823;28;20036;-46
2021/05/19 04:46:09;;;;;;;10.18;9.07;;;;;;;12.42;79.95;99297.16;5099172;28;20050;-46
2021/05/19 04:48:35;;;;;;;11.07;8.80;;;;;;;12.46;80.23;99307.44;5098608;28;20052;-46
2021/05/19 04:51:01;;;;;;;10.10;7.82;;;;;;;12.54;80.31;99300.09;5097952;28;20048;-46
2021/05/19 04:53:26;;;;;;;11.32;8.15;;;;;;;12.66;79.76;99305.78;5098498;28;20059;-46
2021/05/19 04:55:53;;;;;;;12.77;8.93;;;;;;;12.78;78.98;99307.91;5098785;28;20048;-46
2021/05/19 04:58:19;;;;;;;12.70;8.48;;;;;;;12.82;78.21;99304.22;5098737;28;20056;-46
2021/05/19 05:00:45;;;;;;;10.90;8.93;;;;;;;12.83;78.43;99304.13;5098634;28;20056;-46
2021/05/19 05:03:11;;;;;;;9.55;8.55;;;;;;;12.90;77.80;99299.47;5098369;28;20331;-46
2021/05/19 05:05:37;;;;;;;10.00;8.80;;;;;;;13.00;77.63;99305.19;5098109;28;20055;-46
2021/05/19 05:08:04;;;;;;;9.45;8.45;;;;;;;13.14;77.61;99302.00;5098297;28;20357;-46
2021/05/19 05:10:29;;;;;;;8.25;7.45;;;;;;;13.22;77.41;99299.88;5098767;28;20047;-46
2021/05/19 05:12:55;;;;;;;9.75;8.10;;;;;;;13.60;77.36;99297.34;5097542;28;20044;-46
2021/05/19 05:15:22;;;;;;;10.48;7.60;;;;;;;13.70;75.54;99304.75;5098190;28;20044;-46
2021/05/19 05:17:47;;;;;;;9.10;7.60;;;;;;;13.98;75.83;99299.06;5098352;28;20048;-46
2021/05/19 05:20:13;;;;;;;10.15;8.45;;;;;;;14.77;74.05;99303.19;5097345;28;20044;-46
2021/05/19 05:22:39;;;;;;;8.20;6.75;;;;;;;15.45;71.24;99308.50;5097849;28;20056;-47
2021/05/19 05:25:05;;;;;;;10.10;7.38;;;;;;;15.99;68.30;99298.53;5098124;28;20127;-47
2021/05/19 05:27:31;;;;;;;9.65;6.03;;;;;;;16.47;65.87;99304.66;5098157;28;20055;-47
2021/05/19 05:29:57;;;;;;;7.63;6.07;;;;;;;17.07;64.21;99310.00;5098089;28;20445;-47
2021/05/19 05:32:22;;;;;;;6.20;5.60;;;;;;;17.16;61.76;99304.16;5097836;28;20302;-47
2021/05/19 05:34:48;;;;;;;7.88;5.88;;;;;;;17.67;61.96;99309.00;5098013;28;20127;-47
2021/05/19 05:37:14;;;;;;;6.15;5.07;;;;;;;17.99;59.00;99305.19;5097889;28;20346;-47
2021/05/19 05:39:40;;;;;;;6.57;5.88;;;;;;;18.44;58.41;99319.09;5097926;28;20048;-47
2021/05/19 05:42:06;;;;;;;6.15;5.07;;;;;;;18.87;56.02;99320.75;5098503;28;20483;-47
2021/05/19 05:44:31;;;;;;;7.18;4.97;;;;;;;19.10;54.74;99320.03;5097548;28;20040;-47
2021/05/19 05:46:57;;;;;;;4.60;4.20;;;;;;;19.21;55.13;99322.00;5080047;28;20052;-47
2021/05/19 05:49:23;;;;;;;5.32;4.82;;;;;;;18.89;55.20;99329.47;5097404;28;20086;-47
2021/05/19 05:51:49;;;;;;;6.18;5.40;;;;;;;18.76;55.70;99328.59;5096769;28;20048;-47
2021/05/19 05:54:14;;;;;;;7.53;5.97;;;;;;;18.67;54.71;99327.34;5097617;28;20131;-47
2021/05/19 05:56:41;;;;;;;5.90;5.30;;;;;;;18.49;55.03;99336.50;5097589;28;20048;-47
2021/05/19 05:59:09;;;;;;;5.50;5.00;;;;;;;18.67;55.10;99340.63;5097243;28;20510;-47
2021/05/19 06:01:35;;;;;;;6.75;5.55;;;;;;;19.10;54.27;99343.09;5079565;28;20040;-47
2021/05/19 06:04:01;;;;;;;5.90;4.15;;;;;;;19.31;53.55;99346.09;5096224;28;20055;-47
2021/05/19 06:06:27;;;;;;;7.00;5.60;;;;;;;19.69;54.11;99338.16;5096329;28;20109;-47
2021/05/19 06:08:53;;;;;;;4.95;4.10;;;;;;;19.96;52.58;99342.50;5097317;28;20470;-47
2021/05/19 06:11:19;;;;;;;3.83;3.47;;;;;;;20.24;50.34;99336.03;5096683;28;20052;-47
2021/05/19 06:13:44;;;;;;;7.93;5.97;;;;;;;20.62;50.15;99337.75;5098081;28;20055;-47
2021/05/19 06:16:10;;;;;;;6.13;4.68;;;;;;;20.95;49.16;99342.34;5096218;28;20047;-47
2021/05/19 06:18:36;;;;;;;4.22;3.80;;;;;;;21.32;47.23;99339.53;5097030;28;20056;-47
2021/05/19 06:21:01;;;;;;;4.05;2.90;;;;;;;21.60;44.73;99335.63;5096965;28;20056;-48
2021/05/19 06:23:27;;;;;;;6.97;4.43;;;;;;;21.62;42.79;99344.38;5097011;28;20058;-48
2021/05/19 06:25:53;;;;;;;5.18;3.65;;;;;;;21.96;42.92;99352.38;5096443;28;20040;-47
2021/05/19 06:28:18;;;;;;;3.95;3.35;;;;;;;21.81;41.86;99349.94;5111349;28;20468;-48
2021/05/19 06:30:44;;;;;;;3.33;2.72;;;;;;;22.27;41.01;99348.97;5095195;28;20050;-48
2021/05/19 06:33:10;;;;;;;3.40;2.63;;;;;;;22.34;41.71;99347.50;5095087;28;20500;-48
2021/05/19 06:35:36;;;;;;;4.82;2.00;;;;;;;22.72;39.74;99348.88;5094856;28;20043;-48
2021/05/19 06:38:01;;;;;;;2.70;2.50;;;;;;;22.71;39.42;99343.63;5094766;28;20069;-48
2021/05/19 06:40:27;;;;;;;3.08;2.35;;;;;;;23.17;40.43;99345.16;5095269;28;20048;-48
2021/05/19 06:42:53;;;;;;;3.28;2.50;;;;;;;23.47;38.84;99355.09;5112873;28;20123;-48
2021/05/19 06:45:18;;;;;;;3.30;2.50;;;;;;;23.74;38.39;99349.22;5096669;28;20044;-48
2021/05/19 06:47:44;;;;;;;3.70;2.47;;;;;;;23.47;37.52;99352.41;5096486;28;20495;-48
2021/05/19 06:50:10;;;;;;;6.30;2.65;;;;;;;23.97;37.77;99356.06;5096381;28;20058;-48
2021/05/19 06:52:36;;;;;;;2.67;2.30;;;;;;;24.06;37.54;99353.56;5096617;28;20048;-48
2021/05/19 06:55:06;;;;;;;3.95;2.42;;;;;;;24.05;36.72;99352.72;5096616;28;20044;-48
2021/05/19 06:57:32;;;;;;;3.78;2.17;;;;;;;24.29;36.99;99359.56;5096557;28;20044;-48
2021/05/19 06:59:57;;;;;;;3.40;2.92;;;;;;;23.94;36.43;99350.97;5096282;28;20036;-48
2021/05/19 07:02:23;;;;;;;2.50;2.30;;;;;;;24.21;35.47;99352.19;5096718;28;20051;-48
2021/05/19 07:04:49;;;;;;;4.53;2.13;;;;;;;23.91;35.06;99348.56;5096382;28;20323;-48
2021/05/19 07:07:15;;;;;;;2.47;2.28;;;;;;;23.83;34.97;99352.91;5096957;28;20044;-48
2021/05/19 07:09:41;;;;;;;3.70;2.20;;;;;;;23.49;35.80;99361.13;5095251;28;20154;-47
2021/05/19 07:12:07;;;;;;;4.57;3.53;;;;;;;23.26;36.56;99366.59;5096167;28;20350;-48
2021/05/19 07:14:35;;;;;;;2.50;2.15;;;;;;;23.27;36.95;99362.97;5095482;28;20050;-48
2021/05/19 07:17:01;;;;;;;3.10;1.90;;;;;;;23.37;34.06;99352.34;5095025;28;20353;-48
2021/05/19 07:19:27;;;;;;;4.95;2.50;;;;;;;23.10;34.68;99351.03;5096182;28;20043;-48
2021/05/19 07:21:53;;;;;;;2.85;1.88;;;;;;;23.12;35.08;99358.91;5094138;28;20135;-48
2021/05/19 07:24:19;;;;;;;2.33;1.77;;;;;;;23.28;35.59;99347.78;5093928;28;20044;-48
2021/05/19 07:26:46;;;;;;;2.70;2.00;;;;;;;23.37;34.93;99348.81;5093555;28;20058;-48
2021/05/19 07:29:12;;;;;;;3.88;2.25;;;;;;;23.75;35.30;99353.56;5098516;28;20048;-48
2021/05/19 07:31:39;;;;;;;2.40;2.17;;;;;;;23.77;35.40;99352.47;5097961;28;20055;-48
2021/05/19 07:34:04;;;;;;;2.90;2.10;;;;;;;24.11;36.20;99352.16;5098600;28;20044;-48
2021/05/19 07:36:30;;;;;;;3.33;2.08;;;;;;;23.86;35.53;99358.00;5099814;28;20048;-48
2021/05/19 07:38:56;;;;;;;3.78;2.70;;;;;;;24.18;34.91;99350.66;5100260;28;20063;-48
2021/05/19 07:41:23;;;;;;;2.75;2.13;;;;;;;24.18;35.66;99353.34;5099980;28;20048;-48
2021/05/19 07:43:49;;;;;;;3.47;2.33;;;;;;;24.18;34.95;99348.00;5100080;28;20063;-48
2021/05/19 07:46:15;;;;;;;5.18;2.53;;;;;;;24.12;35.28;99347.69;5099310;28;20092;-48
2021/05/19 07:48:40;;;;;;;2.97;2.35;;;;;;;23.78;35.28;99346.13;5099464;28;20048;-48
2021/05/19 07:51:06;;;;;;;4.03;2.45;;;;;;;23.97;36.13;99341.84;5099162;28;20399;-48
2021/05/19 07:53:32;;;;;;;3.72;3.03;;;;;;;24.30;35.50;99323.78;5099340;28;20044;-48
2021/05/19 07:56:09;;;;;;;4.72;3.47;;;;;;;24.52;35.19;99341.47;5099703;28;20044;-48
2021/05/19 07:58:39;;;;;;;3.78;2.78;;;;;;;24.32;34.42;99336.03;5099344;28;20362;-48
2021/05/19 08:03:33;;;;;;;3.40;2.58;;;;;;;23.57;35.34;99342.63;5099486;28;20047;-48
2021/05/19 08:06:00;;;;;;;3.65;2.13;;;;;;;22.78;35.74;99344.81;5099200;28;20044;-47
2021/05/19 08:08:25;;;;;;;3.28;1.95;;;;;;;22.14;36.93;99342.91;5099412;28;20048;-47
2021/05/19 08:10:51;;;;;;;4.85;1.90;;;;;;;21.80;36.90;99348.25;5098812;28;20063;-47
2021/05/19 08:13:17;;;;;;;3.28;2.05;;;;;;;21.28;38.63;99338.09;5098955;28;20056;-47
2021/05/19 08:15:43;;;;;;;3.50;2.38;;;;;;;20.81;38.64;99340.75;5099329;28;20054;-47
2021/05/19 08:18:09;;;;;;;4.30;3.10;;;;;;;20.68;39.73;99335.47;5098427;28;20036;-47
2021/05/19 08:20:35;;;;;;;3.50;2.83;;;;;;;20.64;40.83;99338.50;5115076;28;20048;-47
2021/05/19 08:23:01;;;;;;;4.35;2.70;;;;;;;21.20;41.09;99339.53;5099471;28;20354;-47
2021/05/19 08:25:27;;;;;;;4.97;2.70;;;;;;;21.62;39.86;99344.38;5099550;28;20395;-47
2021/05/19 08:27:53;;;;;;;3.88;2.55;;;;;;;21.50;38.94;99343.50;5099310;28;20048;-47
2021/05/19 08:30:19;;;;;;;2.72;2.40;;;;;;;21.45;38.99;99343.03;5098413;28;20131;-47
2021/05/19 08:32:45;;;;;;;2.67;2.13;;;;;;;21.36;38.59;99341.06;5098910;28;20492;-47
2021/05/19 08:35:13;;;;;;;5.50;2.20;;;;;;;21.12;39.18;99341.06;5098916;28;20059;-47
2021/05/19 08:37:39;;;;;;;4.13;2.70;;;;;;;20.93;39.10;99353.13;5098803;28;20044;-47
2021/05/19 08:40:05;;;;;;;3.70;2.25;;;;;;;20.63;40.07;99342.94;5063894;28;20055;-47
2021/05/19 08:42:35;;;;;;;3.05;1.83;;;;;;;20.70;40.23;99344.22;5098153;28;20048;-47
2021/05/19 08:45:06;;;;;;;2.75;1.73;;;;;;;20.52;39.58;99345.56;5098177;28;20079;-47
2021/05/19 08:47:32;;;;;;;3.35;1.80;;;;;;;20.58;38.08;99336.28;5099167;28;20060;-47
2021/05/19 08:49:58;;;;;;;4.03;2.08;;;;;;;20.33;38.54;99329.22;5098604;28;20056;-47
2021/05/19 08:52:24;;;;;;;6.32;4.15;;;;;;;20.55;40.06;99332.03;5097922;28;20044;-47
2021/05/19 08:54:53;;;;;;;7.47;4.22;;;;;;;20.69;40.17;99337.16;5097893;28;20044;-47
2021/05/19 08:57:19;;;;;;;4.57;3.30;;;;;;;20.79;38.62;99342.66;5098668;28;20442;-47
2021/05/19 08:59:44;;;;;;;5.50;3.95;;;;;;;20.71;38.42;99339.72;5098692;28;20081;-47
2021/05/19 09:02:12;;;;;;;3.47;3.17;;;;;;;20.63;38.08;99344.75;5098979;28;20433;-52
2021/05/19 09:04:38;;;;;;;3.63;2.75;;;;;;;20.54;38.30;99336.50;5048054;28;20048;-52
2021/05/19 09:07:05;;;;;;;3.20;2.13;;;;;;;20.66;37.13;99341.88;5098584;28;20051;-53
2021/05/19 09:09:35;;;;;;;2.33;2.10;;;;;;;20.40;38.23;99349.06;5097265;28;20071;-52
2021/05/19 09:12:08;;;;;;;3.70;2.50;;;;;;;20.11;39.40;99359.16;5098601;28;20040;-52
2021/05/19 09:14:59;;;;;;;2.28;2.08;;;;;;;19.64;40.00;99356.22;5098430;28;20328;-53
2021/05/19 09:17:30;;;;;;;2.95;2.10;;;;;;;19.30;40.89;99360.31;5098376;28;20426;-53
2021/05/19 09:20:09;;;;;;;3.55;2.15;;;;;;;18.93;42.09;99352.19;5098107;28;20051;-53
2021/05/19 09:22:43;;;;;;;3.72;2.90;;;;;;;18.74;43.38;99362.31;5080556;28;20473;-53
2021/05/19 09:25:16;;;;;;;5.13;2.65;;;;;;;18.62;44.59;99370.09;5096049;28;20125;-53
2021/05/19 09:27:43;;;;;;;4.60;2.28;;;;;;;18.45;44.82;99362.38;5096108;28;20074;-53
2021/05/19 09:30:09;;;;;;;2.83;2.58;;;;;;;18.58;45.27;99360.63;5095295;28;20055;-52
2021/05/19 09:32:39;;;;;;;2.20;2.00;;;;;;;18.46;45.00;99348.19;5096585;28;20040;-53
2021/05/19 09:35:09;;;;;;;3.03;1.85;;;;;;;18.55;44.96;99358.16;5095203;28;20052;-52
2021/05/19 09:37:36;;;;;;;6.18;2.22;;;;;;;18.62;44.77;99364.81;5078400;28;20056;-53
2021/05/19 09:40:12;;;;;;;5.88;2.10;;;;;;;18.76;44.13;99358.63;5095722;28;20131;-53
2021/05/19 09:42:42;;;;;;;4.43;2.30;;;;;;;18.80;43.51;99349.50;5096268;28;20093;-52
2021/05/19 09:45:15;;;;;;;2.42;2.22;;;;;;;19.25;43.61;99350.03;5096018;28;20047;-53
2021/05/19 09:47:41;;;;;;;3.10;2.15;;;;;;;19.74;42.98;99353.78;5097007;28;20331;-52
2021/05/19 09:50:18;;;;;;;3.92;1.98;;;;;;;20.13;41.68;99351.94;5097186;28;20442;-52
2021/05/19 09:53:03;;;;;;;5.57;2.17;;;;;;;20.67;39.89;99349.75;5095909;28;20343;-52
2021/05/19 09:55:29;;;;;;;5.10;2.05;;;;;;;20.90;40.75;99341.88;5097421;28;20079;-52
2021/05/19 09:57:55;;;;;;;3.03;1.98;;;;;;;21.26;39.14;99338.22;5097606;28;20071;-53
2021/05/19 10:00:23;;;;;;;3.88;3.10;;;;;;;21.33;38.44;99331.47;5097539;28;20062;-54
2021/05/19 10:02:50;;;;;;;4.68;2.72;;;;;;;21.24;38.64;99332.16;5097508;28;20052;-52
2021/05/19 10:05:29;;;;;;;3.47;2.33;;;;;;;20.98;39.09;99339.47;5097093;28;20360;-52
2021/05/19 10:07:55;;;;;;;2.58;1.75;;;;;;;20.81;39.43;99340.75;5097458;28;20334;-53
2021/05/19 10:10:25;;;;;;;3.47;2.00;;;;;;;20.71;40.19;99339.72;5097382;28;20063;-52
2021/05/19 10:12:51;;;;;;;5.28;2.30;;;;;;;20.66;40.41;99347.19;5079657;28;20047;-53
2021/05/19 10:15:24;;;;;;;3.47;1.90;;;;;;;20.55;40.44;99350.66;5097243;28;20456;-52
2021/05/19 10:17:53;;;;;;;2.15;1.40;;;;;;;20.56;40.48;99346.16;5096374;28;20113;-52
2021/05/19 10:20:21;;;;;;;5.78;1.98;;;;;;;20.86;37.58;99337.72;5079476;28;20353;-53
2021/05/19 10:22:48;;;;;;;3.78;1.55;;;;;;;21.12;37.65;99341.06;5095901;28;20060;-53
2021/05/19 10:25:41;;;;;;;2.58;1.35;;;;;;;21.44;39.10;99346.63;5096290;28;20342;-53
2021/05/19 10:28:15;;;;;;;4.63;2.80;;;;;;;21.97;39.04;99341.59;5097034;28;20047;-53
2021/05/19 10:30:43;;;;;;;4.38;1.88;;;;;;;22.15;37.87;99336.59;5096755;28;20101;-53
2021/05/19 10:33:37;;;;;;;2.92;1.73;;;;;;;21.90;37.37;99330.56;5096701;28;20036;-53
2021/05/19 10:36:24;;;;;;;3.90;1.55;;;;;;;21.91;37.50;99329.59;5096874;28;20058;-53
2021/05/19 10:39:11;;;;;;;1.50;1.38;;;;;;;21.89;37.57;99334.19;5097198;28;20047;-54
2021/05/19 10:41:53;;;;;;;1.92;1.70;;;;;;;21.83;37.98;99341.81;5096592;28;20044;-53
2021/05/19 10:44:29;;;;;;;3.95;2.03;;;;;;;21.90;37.41;99338.56;5096722;28;20044;-53
2021/05/19 10:49:56;;;;;;;10.10;5.10;;;;;;;22.42;37.40;99330.03;5096758;28;20108;-53
2021/05/19 10:57:52;;;;;;;3.35;1.73;;;;;;;22.72;34.61;99338.19;5096270;28;20058;-53
2021/05/19 11:02:55;;;;;;;4.30;1.48;;;;;;;22.76;36.14;99334.28;5096153;28;20384;-53
2021/05/19 11:05:21;;;;;;;7.70;3.60;;;;;;;23.11;34.04;99338.53;5096478;28;20048;-53
2021/05/19 11:08:10;;;;;;;13.93;7.50;;;;;;;23.12;33.03;99342.06;5096670;28;20048;-53
2021/05/19 11:10:41;;;;;;;6.35;2.40;;;;;;;23.12;33.07;99334.88;5096144;28;20051;-53
2021/05/19 11:13:07;;;;;;;3.30;1.15;;;;;;;22.83;32.36;99343.47;5096202;28;20404;-53
2021/05/19 11:18:20;;;;;;;3.72;2.22;;;;;;;22.56;33.15;99346.63;5096369;28;20105;-53
2021/05/19 11:20:49;;;;;;;5.07;1.00;;;;;;;22.43;34.28;99340.59;5096566;28;20048;-53
2021/05/19 11:23:15;;;;;;;3.67;1.30;;;;;;;22.05;36.24;99348.97;5095426;28;20047;-53
2021/05/19 11:25:41;;;;;;;1.80;1.13;;;;;;;21.58;37.45;99351.75;5096482;28;20110;-53
2021/05/19 11:28:07;;;;;;;4.78;1.33;;;;;;;21.24;38.26;99348.13;5096258;28;20047;-53
2021/05/19 11:30:33;;;;;;;3.15;1.58;;;;;;;21.13;38.68;99356.94;5095960;28;20404;-53
2021/05/19 11:33:02;;;;;;;8.15;4.82;;;;;;;21.18;38.53;99352.09;5095094;28;20519;-52
2021/05/19 11:35:27;;;;;;;9.35;6.43;;;;;;;20.90;39.17;99352.53;5095886;28;20449;-52
2021/05/19 11:38:01;;;;;;;3.45;1.70;;;;;;;20.42;39.65;99350.66;5095038;28;20052;-52
2021/05/19 11:40:49;;;;;;;2.75;1.40;;;;;;;20.26;40.99;99350.91;5096166;28;20075;-52
2021/05/19 11:43:15;;;;;;;5.75;3.00;;;;;;;20.06;41.29;99349.69;5095866;28;20047;-52
2021/05/19 11:45:42;;;;;;;1.80;1.25;;;;;;;19.98;42.08;99351.19;5095205;28;20051;-52
2021/05/19 11:48:28;;;;;;;5.45;1.13;;;;;;;19.77;43.15;99357.06;5095902;28;20460;-53
2021/05/19 11:50:55;;;;;;;1.45;0.98;;;;;;;19.60;43.18;99349.41;5095618;28;20098;-52